createdAt,value
2022-10-22T00:02:27.657Z,100290.06
2022-10-22T00:04:54.583Z,100275.94
2022-10-22T00:07:21.181Z,100286.09
2022-10-22T00:09:47.819Z,100288.97
2022-10-22T00:12:15.447Z,100301.63
2022-10-22T00:14:42.575Z,100311.78
2022-10-22T00:17:11.579Z,100317.19
2022-10-22T00:19:38.897Z,100316.19
2022-10-22T00:22:05.750Z,100314.31
2022-10-22T00:24:33.849Z,100325.94
2022-10-22T00:27:00.459Z,100321.19
2022-10-22T00:29:26.819Z,100318.50
2022-10-22T00:31:53.207Z,100321.19
2022-10-22T00:34:21.346Z,100321.84
2022-10-22T00:36:49.135Z,100308.34
2022-10-22T00:39:17.454Z,100307.13
2022-10-22T00:41:44.990Z,100311.66
2022-10-22T00:44:48.964Z,100306.72
2022-10-22T00:47:16.694Z,100306.50
2022-10-22T00:49:44.225Z,100312.94
2022-10-22T00:52:11.407Z,100314.59
2022-10-22T00:54:38.674Z,100318.13
2022-10-22T00:57:05.094Z,100319.00
2022-10-22T00:59:31.765Z,100316.28
2022-10-22T01:01:58.459Z,100311.06
2022-10-22T01:04:24.925Z,100320.00
2022-10-22T01:06:51.550Z,100314.81
2022-10-22T01:09:42.483Z,100308.56
2022-10-22T01:12:40.568Z,100319.34
2022-10-22T01:15:23.078Z,100332.25
2022-10-22T01:18:00.446Z,100325.16
2022-10-22T01:20:51.193Z,100333.25
2022-10-22T01:23:48.710Z,100325.38
2022-10-22T01:26:36.253Z,100321.84
2022-10-22T01:29:07.630Z,100314.75
2022-10-22T01:31:39.611Z,100309.56
2022-10-22T01:34:08.213Z,100308.91
2022-10-22T01:36:37.341Z,100315.13
2022-10-22T01:39:05.385Z,100309.75
2022-10-22T01:41:31.908Z,100299.78
2022-10-22T01:43:58.236Z,100316.78
2022-10-22T01:46:26.857Z,100310.38
2022-10-22T01:49:07.552Z,100310.19
2022-10-22T01:52:11.560Z,100313.75
2022-10-22T01:55:36.655Z,100326.19
2022-10-22T01:58:14.951Z,100316.44
2022-10-22T02:00:49.962Z,100314.75
2022-10-22T02:03:26.669Z,100323.88
2022-10-22T02:06:02.107Z,100320.34
2022-10-22T02:08:32.230Z,100316.19
2022-10-22T02:11:00.292Z,100316.38
2022-10-22T02:13:32.031Z,100323.81
2022-10-22T02:15:59.662Z,100318.81
2022-10-22T02:18:30.229Z,100313.59
2022-10-22T02:20:57.883Z,100311.50
2022-10-22T02:23:24.516Z,100315.41
2022-10-22T02:26:00.167Z,100312.06
2022-10-22T02:28:37.548Z,100310.41
2022-10-22T02:31:17.079Z,100310.56
2022-10-22T02:33:48.038Z,100311.59
2022-10-22T02:36:16.297Z,100311.13
2022-10-22T02:38:43.250Z,100312.16
2022-10-22T02:41:10.245Z,100307.78
2022-10-22T02:43:44.858Z,100302.59
2022-10-22T02:46:11.663Z,100307.53
2022-10-22T02:48:38.219Z,100306.91
2022-10-22T02:51:04.633Z,100312.47
2022-10-22T02:53:31.142Z,100301.88
2022-10-22T02:55:59.001Z,100307.28
2022-10-22T02:58:25.348Z,100313.69
2022-10-22T03:00:54.619Z,100311.19
2022-10-22T03:03:21.550Z,100318.44
2022-10-22T03:05:47.907Z,100311.38
2022-10-22T03:08:14.259Z,100316.78
2022-10-22T03:10:40.668Z,100310.53
2022-10-22T03:13:07.039Z,100323.22
2022-10-22T03:15:33.438Z,100319.84
2022-10-22T03:17:59.801Z,100320.91
2022-10-22T03:20:26.324Z,100324.59
2022-10-22T03:22:52.821Z,100324.81
2022-10-22T03:25:25.342Z,100323.94
2022-10-22T03:27:54.268Z,100320.63
2022-10-22T03:30:20.624Z,100331.59
2022-10-22T03:32:46.972Z,100330.38
2022-10-22T03:35:13.582Z,100326.84
2022-10-22T03:37:40.771Z,100322.28
2022-10-22T03:40:08.562Z,100324.16
2022-10-22T03:42:35.323Z,100329.56
2022-10-22T03:45:01.683Z,100330.38
2022-10-22T03:47:28.073Z,100339.31
2022-10-22T03:49:54.415Z,100342.84
2022-10-22T03:52:20.746Z,100342.84
2022-10-22T03:54:47.136Z,100338.31
2022-10-22T03:57:13.620Z,100342.84
2022-10-22T03:59:43.067Z,100339.13
2022-10-22T04:02:10.807Z,100347.63
2022-10-22T04:04:38.055Z,100337.66
2022-10-22T04:07:06.562Z,100342.00
2022-10-22T04:09:34.300Z,100342.84
2022-10-22T04:12:03.723Z,100337.44
2022-10-22T04:14:30.058Z,100338.47
2022-10-22T04:16:56.385Z,100341.19
2022-10-22T04:19:22.770Z,100346.75
2022-10-22T04:21:49.317Z,100345.91
2022-10-22T04:24:15.778Z,100342.38
2022-10-22T04:26:42.347Z,100341.56
2022-10-22T04:29:11.912Z,100340.25
2022-10-22T04:31:41.520Z,100347.69
2022-10-22T04:34:07.998Z,100354.13
2022-10-22T04:36:34.514Z,100344.75
2022-10-22T04:39:01.401Z,100349.50
2022-10-22T04:41:30.887Z,100351.53
2022-10-22T04:43:57.972Z,100348.19
2022-10-22T04:46:26.177Z,100345.03
2022-10-22T04:48:53.147Z,100346.25
2022-10-22T04:51:21.809Z,100352.84
2022-10-22T04:53:48.563Z,100357.81
2022-10-22T04:56:26.847Z,100361.50
2022-10-22T04:59:07.080Z,100361.88
2022-10-22T05:01:40.021Z,100364.13
2022-10-22T05:04:11.502Z,100364.97
2022-10-22T05:06:38.339Z,100359.28
2022-10-22T05:09:08.445Z,100363.38
2022-10-22T05:11:37.843Z,100371.00
2022-10-22T05:14:06.087Z,100362.47
2022-10-22T05:16:34.086Z,100361.97
2022-10-22T05:19:02.013Z,100366.91
2022-10-22T05:21:28.897Z,100362.53
2022-10-22T05:23:59.798Z,100367.28
2022-10-22T05:26:28.099Z,100368.28
2022-10-22T05:28:54.910Z,100378.44
2022-10-22T05:31:21.326Z,100370.53
2022-10-22T05:33:47.671Z,100366.19
2022-10-22T05:36:17.684Z,100375.91
2022-10-22T05:38:44.029Z,100368.00
2022-10-22T05:41:16.237Z,100373.41
2022-10-22T05:43:42.664Z,100378.78
2022-10-22T05:46:11.938Z,100389.41
2022-10-22T05:48:38.940Z,100393.75
2022-10-22T05:51:10.659Z,100392.75
2022-10-22T05:53:40.054Z,100387.16
2022-10-22T05:56:09.229Z,100394.25
2022-10-22T05:58:36.399Z,100396.72
2022-10-22T06:01:15.225Z,100392.00
2022-10-22T06:03:42.518Z,100404.28
2022-10-22T06:06:20.543Z,100407.63
2022-10-22T06:08:51.797Z,100407.44
2022-10-22T06:11:20.162Z,100412.66
2022-10-22T06:13:47.699Z,100406.22
2022-10-22T06:16:14.606Z,100406.88
2022-10-22T06:18:41.250Z,100412.72
2022-10-22T06:21:10.856Z,100400.56
2022-10-22T06:23:38.441Z,100409.09
2022-10-22T06:26:05.619Z,100417.47
2022-10-22T06:28:32.798Z,100421.50
2022-10-22T06:31:00.946Z,100423.63
2022-10-22T06:33:28.863Z,100431.16
2022-10-22T06:35:55.491Z,100438.69
2022-10-22T06:38:22.186Z,100444.56
2022-10-22T06:40:48.545Z,100445.69
2022-10-22T06:43:15.059Z,100446.13
2022-10-22T06:45:41.514Z,100450.97
2022-10-22T06:48:07.924Z,100453.09
2022-10-22T06:50:35.019Z,100457.09
2022-10-22T06:53:01.548Z,100459.41
2022-10-22T06:55:28.120Z,100459.69
2022-10-22T06:57:55.585Z,100468.88
2022-10-22T07:00:22.377Z,100467.28
2022-10-22T07:02:56.462Z,100479.88
2022-10-22T07:05:25.467Z,100481.19
2022-10-22T07:07:51.811Z,100485.81
2022-10-22T07:10:18.338Z,100488.41
2022-10-22T07:12:44.663Z,100493.06
2022-10-22T07:15:11.483Z,100483.34
2022-10-22T07:20:10.209Z,100493.25
2022-10-22T07:22:36.596Z,100476.31
2022-10-22T07:25:06.579Z,100481.75
2022-10-22T07:27:33.898Z,100491.78
2022-10-22T07:30:01.364Z,100504.53
2022-10-22T07:32:28.047Z,100501.06
2022-10-22T07:34:54.595Z,100503.84
2022-10-22T07:37:22.081Z,100508.28
2022-10-22T07:39:49.366Z,100508.31
2022-10-22T07:42:16.166Z,100508.19
2022-10-22T07:44:42.542Z,100514.53
2022-10-22T07:47:08.910Z,100515.22
2022-10-22T07:49:35.282Z,100521.34
2022-10-22T07:52:01.776Z,100515.75
2022-10-22T07:54:28.213Z,100512.06
2022-10-22T07:56:54.614Z,100525.22
2022-10-22T07:59:21.001Z,100527.78
2022-10-22T08:01:47.442Z,100525.78
2022-10-22T08:04:13.883Z,100522.69
2022-10-22T08:06:42.528Z,100528.56
2022-10-22T08:09:12.089Z,100527.16
2022-10-22T08:11:39.046Z,100535.75
2022-10-22T08:14:05.573Z,100534.38
2022-10-22T08:16:32.058Z,100532.53
2022-10-22T08:18:58.468Z,100538.00
2022-10-22T08:21:25.022Z,100533.81
2022-10-22T08:23:51.447Z,100532.56
2022-10-22T08:26:18.192Z,100533.00
2022-10-22T08:28:44.619Z,100530.91
2022-10-22T08:31:11.534Z,100526.13
2022-10-22T08:33:38.985Z,100528.66
2022-10-22T08:36:05.691Z,100541.78
2022-10-22T08:38:32.054Z,100539.31
2022-10-22T08:41:18.159Z,100534.09
2022-10-22T08:44:03.230Z,100537.03
2022-10-22T08:47:11.271Z,100538.09
2022-10-22T08:49:42.308Z,100550.81
2022-10-22T08:52:14.451Z,100541.44
2022-10-22T08:54:58.717Z,100548.94
2022-10-22T08:57:58.251Z,100545.59
2022-10-22T09:00:50.988Z,100552.09
2022-10-22T09:03:36.613Z,100551.91
2022-10-22T09:06:13.606Z,100556.47
2022-10-22T09:08:42.531Z,100551.47
2022-10-22T09:11:23.913Z,100558.59
2022-10-22T09:13:51.698Z,100556.09
2022-10-22T09:16:19.610Z,100562.34
2022-10-22T09:18:59.564Z,100557.97
2022-10-22T09:21:41.450Z,100554.41
2022-10-22T09:24:10.765Z,100564.88
2022-10-22T09:26:39.689Z,100565.06
2022-10-22T09:29:07.028Z,100570.06
2022-10-22T09:31:34.643Z,100574.03
2022-10-22T09:34:06.019Z,100571.50
2022-10-22T09:36:32.775Z,100566.28
2022-10-22T09:38:59.664Z,100576.09
2022-10-22T09:41:32.154Z,100576.69
2022-10-22T09:43:59.222Z,100573.53
2022-10-22T09:46:29.741Z,100578.09
2022-10-22T09:49:10.474Z,100575.38
2022-10-22T09:51:51.812Z,100582.59
2022-10-22T09:54:19.913Z,100587.38
2022-10-22T09:57:14.055Z,100588.97
2022-10-22T09:59:43.087Z,100599.38
2022-10-22T10:02:19.940Z,100595.78
2022-10-22T10:04:56.202Z,100600.94
2022-10-22T10:07:25.736Z,100602.81
2022-10-22T10:09:54.095Z,100605.50
2022-10-22T10:12:43.998Z,100609.03
2022-10-22T10:15:20.483Z,100606.47
2022-10-22T10:17:57.073Z,100612.09
2022-10-22T10:20:35.428Z,100611.66
2022-10-22T10:23:46.759Z,100621.03
2022-10-22T10:26:20.127Z,100620.59
2022-10-22T10:29:12.763Z,100628.34
2022-10-22T10:31:52.990Z,100620.78
2022-10-22T10:34:33.994Z,100623.25
2022-10-22T10:37:19.161Z,100632.50
2022-10-22T10:40:14.771Z,100632.72
2022-10-22T10:42:51.527Z,100627.25
2022-10-22T10:45:55.487Z,100631.88
2022-10-22T10:49:03.476Z,100638.97
2022-10-22T10:52:00.931Z,100633.53
2022-10-22T10:55:08.820Z,100635.44
2022-10-22T10:57:46.568Z,100632.72
2022-10-22T11:00:20.037Z,100635.44
2022-10-22T11:03:16.044Z,100637.31
2022-10-22T11:05:58.261Z,100632.72
2022-10-22T11:08:35.792Z,100639.59
2022-10-22T11:11:23.878Z,100637.50
2022-10-22T11:14:19.501Z,100643.56
2022-10-22T11:17:13.968Z,100641.22
2022-10-22T11:20:11.362Z,100641.84
2022-10-22T11:23:18.081Z,100646.84
2022-10-22T11:25:48.378Z,100644.50
2022-10-22T11:28:30.547Z,100643.00
2022-10-22T11:31:10.859Z,100627.88
2022-10-22T11:33:50.684Z,100633.72
2022-10-22T11:36:20.338Z,100634.94
2022-10-22T11:38:46.797Z,100639.94
2022-10-22T11:41:17.060Z,100650.16
2022-10-22T11:44:09.531Z,100647.59
2022-10-22T11:46:58.113Z,100646.94
2022-10-22T11:49:42.591Z,100651.13
2022-10-22T11:52:31.460Z,100650.47
2022-10-22T11:55:02.307Z,100646.47
2022-10-22T11:57:37.486Z,100648.50
2022-10-22T12:00:31.349Z,100650.78
2022-10-22T12:03:17.431Z,100648.22
2022-10-22T12:05:45.539Z,100645.25
2022-10-22T12:08:22.848Z,100646.69
2022-10-22T12:10:57.336Z,100646.47
2022-10-22T12:13:27.809Z,100655.50
2022-10-22T12:15:58.426Z,100660.13
2022-10-22T12:18:41.220Z,100655.69
2022-10-22T12:21:13.708Z,100662.22
2022-10-22T12:23:40.447Z,100660.41
2022-10-22T12:26:21.846Z,100669.88
2022-10-22T12:28:48.227Z,100659.84
2022-10-22T12:31:18.085Z,100666.00
2022-10-22T12:33:44.685Z,100667.09
2022-10-22T12:36:18.041Z,100674.03
2022-10-22T12:38:47.471Z,100673.84
2022-10-22T12:41:14.124Z,100677.88
2022-10-22T12:43:40.672Z,100670.13
2022-10-22T12:46:15.082Z,100670.97
2022-10-22T12:48:44.141Z,100669.53
2022-10-22T12:51:17.927Z,100671.41
2022-10-22T12:53:50.714Z,100664.72
2022-10-22T12:56:29.965Z,100664.56
2022-10-22T12:59:03.065Z,100671.53
2022-10-22T13:01:35.962Z,100668.63
2022-10-22T13:04:22.837Z,100672.84
2022-10-22T13:06:52.479Z,100672.66
2022-10-22T13:09:27.443Z,100669.19
2022-10-22T13:12:04.576Z,100673.81
2022-10-22T13:14:34.151Z,100664.03
2022-10-22T13:17:11.617Z,100672.00
2022-10-22T13:19:53.218Z,100677.91
2022-10-22T13:22:30.970Z,100667.84
2022-10-22T13:25:13.709Z,100676.00
2022-10-22T13:27:45.043Z,100673.72
2022-10-22T13:30:20.153Z,100673.47
2022-10-22T13:32:51.896Z,100673.88
2022-10-22T13:35:21.741Z,100673.66
2022-10-22T13:37:48.058Z,100675.09
2022-10-22T13:40:14.872Z,100675.28
2022-10-22T13:42:41.532Z,100671.28
2022-10-22T13:45:08.451Z,100675.84
2022-10-22T13:47:34.838Z,100677.47
2022-10-22T13:50:12.718Z,100673.19
2022-10-22T13:52:43.240Z,100673.75
2022-10-22T13:55:18.447Z,100685.81
2022-10-22T13:57:45.626Z,100679.69
2022-10-22T14:00:14.587Z,100681.75
2022-10-22T14:02:42.167Z,100681.28
2022-10-22T14:05:11.105Z,100687.19
2022-10-22T14:07:38.853Z,100695.13
2022-10-22T14:10:20.031Z,100696.34
2022-10-22T14:12:52.311Z,100690.91
2022-10-22T14:15:23.711Z,100694.00
2022-10-22T14:17:56.151Z,100693.78
2022-10-22T14:20:29.006Z,100696.72
2022-10-22T14:23:11.709Z,100706.19
2022-10-22T14:25:38.082Z,100713.16
2022-10-22T14:28:04.587Z,100705.81
2022-10-22T14:30:32.789Z,100703.78
2022-10-22T14:32:59.331Z,100704.44
2022-10-22T14:35:25.870Z,100703.22
2022-10-22T14:37:52.286Z,100703.66
2022-10-22T14:40:20.911Z,100705.56
2022-10-22T14:42:48.964Z,100709.56
2022-10-22T14:45:25.291Z,100707.47
2022-10-22T14:47:54.773Z,100709.56
2022-10-22T14:50:21.660Z,100710.84
2022-10-22T14:52:48.537Z,100713.78
2022-10-22T14:55:16.626Z,100705.00
2022-10-22T14:57:43.706Z,100709.22
2022-10-22T15:00:16.154Z,100710.03
2022-10-22T15:02:43.090Z,100707.16
2022-10-22T15:05:10.155Z,100712.84
2022-10-22T15:07:37.100Z,100723.09
2022-10-22T15:10:04.565Z,100725.22
2022-10-22T15:12:30.927Z,100718.09
2022-10-22T15:14:57.534Z,100728.16
2022-10-22T15:17:24.084Z,100723.75
2022-10-22T15:19:50.447Z,100725.66
2022-10-22T15:22:17.315Z,100733.81
2022-10-22T15:24:44.692Z,100718.56
2022-10-22T15:27:15.045Z,100732.16
2022-10-22T15:29:42.618Z,100725.28
2022-10-22T15:32:12.676Z,100732.00
2022-10-22T15:34:39.874Z,100725.28
2022-10-22T15:37:09.013Z,100726.81
2022-10-22T15:39:36.068Z,100728.72
2022-10-22T15:42:02.450Z,100733.97
2022-10-22T15:44:31.135Z,100727.72
2022-10-22T15:46:58.326Z,100731.34
2022-10-22T15:49:26.635Z,100728.84
2022-10-22T15:51:53.514Z,100738.69
2022-10-22T15:54:25.273Z,100735.78
2022-10-22T15:56:51.887Z,100731.41
2022-10-22T15:59:18.388Z,100734.16
2022-10-22T16:01:44.859Z,100738.81
2022-10-22T16:04:11.820Z,100737.75
2022-10-22T16:06:43.387Z,100745.94
2022-10-22T16:09:12.623Z,100747.81
2022-10-22T16:11:40.184Z,100753.28
2022-10-22T16:14:07.248Z,100756.25
2022-10-22T16:16:36.465Z,100769.81
2022-10-22T16:19:03.239Z,100757.47
2022-10-22T16:21:29.690Z,100757.47
2022-10-22T16:23:56.050Z,100769.38
2022-10-22T16:26:22.453Z,100769.41
2022-10-22T16:28:49.151Z,100767.72
2022-10-22T16:31:17.916Z,100772.06
2022-10-22T16:33:46.487Z,100771.25
2022-10-22T16:36:17.993Z,100769.34
2022-10-22T16:38:45.235Z,100784.59
2022-10-22T16:41:14.333Z,100788.97
2022-10-22T16:43:42.042Z,100782.69
2022-10-22T16:46:09.138Z,100787.06
2022-10-22T16:48:37.753Z,100786.22
2022-10-22T16:51:08.866Z,100787.66
2022-10-22T16:53:35.915Z,100798.47
2022-10-22T16:56:02.754Z,100798.28
2022-10-22T16:58:29.725Z,100795.34
2022-10-22T17:00:56.078Z,100795.69
2022-10-22T17:03:24.556Z,100794.44
2022-10-22T17:05:53.857Z,100799.44
2022-10-22T17:08:20.244Z,100809.41
2022-10-22T17:10:46.816Z,100811.53
2022-10-22T17:13:13.139Z,100803.56
2022-10-22T17:15:40.383Z,100806.28
2022-10-22T17:18:06.959Z,100804.41
2022-10-22T17:20:33.358Z,100802.75
2022-10-22T17:22:59.688Z,100804.81
2022-10-22T17:25:36.998Z,100803.16
2022-10-22T17:28:03.380Z,100810.00
2022-10-22T17:30:30.310Z,100815.19
2022-10-22T17:32:56.804Z,100813.94
2022-10-22T17:35:23.198Z,100806.56
2022-10-22T17:37:49.583Z,100810.75
2022-10-22T17:40:16.175Z,100807.13
2022-10-22T17:42:42.794Z,100819.41
2022-10-22T17:45:09.538Z,100818.53
2022-10-22T17:47:36.331Z,100829.16
2022-10-22T17:50:02.675Z,100828.25
2022-10-22T17:52:29.000Z,100833.59
2022-10-22T17:54:55.450Z,100833.38
2022-10-22T17:57:21.787Z,100839.56
2022-10-22T17:59:48.178Z,100841.19
2022-10-22T18:02:16.917Z,100850.94
2022-10-22T18:04:43.706Z,100850.00
2022-10-22T18:07:10.075Z,100848.91
2022-10-22T18:09:36.546Z,100836.16
2022-10-22T18:12:03.011Z,100840.47
2022-10-22T18:14:29.595Z,100852.72
2022-10-22T18:16:55.978Z,100844.31
2022-10-22T18:19:24.389Z,100857.59
2022-10-22T18:21:50.808Z,100861.91
2022-10-22T18:24:18.005Z,100862.69
2022-10-22T18:26:44.397Z,100865.13
2022-10-22T18:29:15.591Z,100860.28
2022-10-22T18:31:41.959Z,100855.63
2022-10-22T18:34:08.390Z,100863.47
2022-10-22T18:36:34.748Z,100859.66
2022-10-22T18:39:02.154Z,100863.75
2022-10-22T18:41:29.926Z,100864.53
2022-10-22T18:44:01.599Z,100872.16
2022-10-22T18:46:29.666Z,100870.88
2022-10-22T18:48:57.361Z,100873.09
2022-10-22T18:51:30.768Z,100868.06
2022-10-22T18:54:06.028Z,100862.59
2022-10-22T18:56:43.821Z,100857.69
2022-10-22T18:59:18.659Z,100866.19
2022-10-22T19:01:45.000Z,100859.47
2022-10-22T19:04:13.423Z,100854.44
2022-10-22T19:06:44.330Z,100849.56
2022-10-22T19:09:13.500Z,100853.47
2022-10-22T19:11:39.990Z,100858.25
2022-10-22T19:14:06.550Z,100857.97
2022-10-22T19:16:34.688Z,100863.72
2022-10-22T19:19:03.602Z,100868.50
2022-10-22T19:21:30.264Z,100882.41
2022-10-22T19:23:57.774Z,100875.28
2022-10-22T19:26:26.418Z,100864.84
2022-10-22T19:28:54.254Z,100867.94
2022-10-22T19:31:23.146Z,100860.19
2022-10-22T19:33:51.127Z,100868.66
2022-10-22T19:36:19.272Z,100874.63
2022-10-22T19:38:48.905Z,100867.06
2022-10-22T19:41:20.002Z,100866.59
2022-10-22T19:43:49.337Z,100866.09
2022-10-22T19:46:15.992Z,100860.41
2022-10-22T19:48:42.449Z,100862.63
2022-10-22T19:51:14.383Z,100862.16
2022-10-22T19:53:41.083Z,100867.06
2022-10-22T19:56:09.732Z,100869.97
2022-10-22T19:58:37.213Z,100870.31
2022-10-22T20:01:11.787Z,100866.97
2022-10-22T20:03:39.184Z,100873.59
2022-10-22T20:06:07.925Z,100868.53
2022-10-22T20:08:37.800Z,100868.25
2022-10-22T20:11:07.062Z,100869.44
2022-10-22T20:13:35.049Z,100863.75
2022-10-22T20:16:01.531Z,100860.53
2022-10-22T20:18:27.951Z,100864.44
2022-10-22T20:20:54.319Z,100874.75
2022-10-22T20:23:20.848Z,100878.63
2022-10-22T20:25:47.874Z,100872.56
2022-10-22T20:28:15.495Z,100878.31
2022-10-22T20:30:45.644Z,100868.72
2022-10-22T20:33:12.792Z,100875.31
2022-10-22T20:35:39.716Z,100877.34
2022-10-22T20:38:08.047Z,100878.53
2022-10-22T20:40:34.703Z,100879.56
2022-10-22T20:43:01.755Z,100878.91
2022-10-22T20:45:28.942Z,100880.94
2022-10-22T20:48:02.789Z,100880.09
2022-10-22T20:50:32.096Z,100873.03
2022-10-22T20:52:59.500Z,100865.97
2022-10-22T20:55:26.856Z,100861.56
2022-10-22T20:57:53.606Z,100860.91
2022-10-22T21:00:20.028Z,100859.41
2022-10-22T21:02:46.663Z,100856.69
2022-10-22T21:05:13.069Z,100856.88
2022-10-22T21:07:39.692Z,100854.19
2022-10-22T21:10:06.705Z,100859.59
2022-10-22T21:12:33.212Z,100859.59
2022-10-22T21:14:59.544Z,100867.69
2022-10-22T21:17:25.974Z,100867.69
2022-10-22T21:19:52.332Z,100865.81
2022-10-22T21:22:18.659Z,100868.34
2022-10-22T21:24:45.006Z,100874.59
2022-10-22T21:27:11.487Z,100873.75
2022-10-22T21:29:37.850Z,100885.38
2022-10-22T21:32:04.264Z,100879.97
2022-10-22T21:34:34.237Z,100878.94
2022-10-22T21:37:02.998Z,100877.28
2022-10-22T21:39:30.361Z,100879.97
2022-10-22T21:41:56.831Z,100880.81
2022-10-22T21:44:23.171Z,100882.84
2022-10-22T21:46:49.509Z,100885.53
2022-10-22T21:49:15.898Z,100882.84
2022-10-22T21:51:42.827Z,100876.78
2022-10-22T21:54:09.160Z,100883.19
2022-10-22T21:56:36.534Z,100886.06
2022-10-22T21:59:04.517Z,100889.63
2022-10-22T22:01:30.918Z,100888.13
2022-10-22T22:03:57.969Z,100898.06
2022-10-22T22:06:29.504Z,100895.34
2022-10-22T22:08:57.531Z,100892.66
2022-10-22T22:11:25.995Z,100895.19
2022-10-22T22:13:57.540Z,100903.97
2022-10-22T22:16:29.738Z,100893.63
2022-10-22T22:19:06.526Z,100892.44
2022-10-22T22:21:35.162Z,100892.09
2022-10-22T22:24:01.853Z,100880.09
2022-10-22T22:26:30.032Z,100885.13
2022-10-22T22:28:58.448Z,100881.09
2022-10-22T22:31:27.667Z,100893.22
2022-10-22T22:34:00.171Z,100887.44
2022-10-22T22:36:26.499Z,100882.88
2022-10-22T22:38:56.877Z,100887.09
2022-10-22T22:41:23.601Z,100895.19
2022-10-22T22:43:50.007Z,100884.03
2022-10-22T22:46:16.395Z,100899.03
2022-10-22T22:48:42.815Z,100892.47
2022-10-22T22:51:10.134Z,100892.09
2022-10-22T22:53:36.490Z,100883.84
2022-10-22T22:56:07.197Z,100874.34
2022-10-22T22:58:34.769Z,100874.19
2022-10-22T23:01:21.897Z,100863.84
2022-10-22T23:03:53.904Z,100866.38
2022-10-22T23:06:20.336Z,100866.38
2022-10-22T23:08:50.114Z,100868.03
2022-10-22T23:11:16.717Z,100866.38
2022-10-22T23:13:43.900Z,100873.44
2022-10-22T23:16:15.841Z,100867.03
2022-10-22T23:18:43.072Z,100870.75
2022-10-22T23:21:13.568Z,100861.44
2022-10-22T23:23:43.677Z,100844.41
2022-10-22T23:26:12.213Z,100845.59
2022-10-22T23:28:38.836Z,100842.06
2022-10-22T23:31:06.563Z,100842.25
2022-10-22T23:33:33.226Z,100845.16
2022-10-22T23:36:02.530Z,100836.84
2022-10-22T23:38:28.878Z,100838.03
2022-10-22T23:40:56.901Z,100835.34
2022-10-22T23:43:27.366Z,100826.25
2022-10-22T23:45:54.814Z,100832.84
2022-10-22T23:48:22.165Z,100829.94
2022-10-22T23:50:49.094Z,100826.41
2022-10-22T23:53:15.653Z,100828.94
2022-10-22T23:55:43.380Z,100831.81
2022-10-22T23:58:10.787Z,100834.34
